createdAt,value
2018-07-14T00:01:54.171Z,101535.37
2018-07-14T00:05:00.452Z,101523.59
2018-07-14T00:08:06.266Z,101532.27
2018-07-14T00:11:12.095Z,101532.80
2018-07-14T00:14:18.292Z,101527.94
2018-07-14T00:17:24.350Z,101518.98
2018-07-14T00:20:29.235Z,101519.06
2018-07-14T00:23:35.359Z,101508.14
2018-07-14T00:26:41.219Z,101510.34
2018-07-14T00:29:46.398Z,101508.70
2018-07-14T00:32:52.533Z,101511.73
2018-07-14T00:35:57.992Z,101515.29
2018-07-14T00:39:04.558Z,101513.62
2018-07-14T00:42:10.361Z,101508.70
2018-07-14T00:45:15.846Z,101513.55
2018-07-14T00:48:22.850Z,101509.30
2018-07-14T00:51:28.806Z,101510.80
2018-07-14T00:54:34.693Z,101509.97
2018-07-14T00:57:41.753Z,101518.27
2018-07-14T01:00:47.723Z,101520.17
2018-07-14T01:03:53.285Z,101513.72
2018-07-14T01:06:58.213Z,101508.25
2018-07-14T01:10:03.396Z,101507.80
2018-07-14T01:13:10.194Z,101509.22
2018-07-14T01:16:15.989Z,101507.17
2018-07-14T01:19:21.712Z,101509.70
2018-07-14T01:22:27.859Z,101518.74
2018-07-14T01:25:33.591Z,101518.80
2018-07-14T01:28:38.791Z,101517.12
2018-07-14T01:31:43.686Z,101521.23
2018-07-14T01:34:49.171Z,101519.57
2018-07-14T01:37:55.140Z,101513.70
2018-07-14T01:41:01.136Z,101517.28
2018-07-14T01:44:06.755Z,101514.02
2018-07-14T01:47:13.271Z,101512.89
2018-07-14T01:50:19.075Z,101508.38
2018-07-14T01:53:25.084Z,101500.26
2018-07-14T01:56:30.347Z,101509.53
2018-07-14T01:59:36.459Z,101505.66
2018-07-14T02:02:42.175Z,101512.57
2018-07-14T02:05:47.344Z,101506.70
2018-07-14T02:08:53.206Z,101504.35
2018-07-14T02:11:58.415Z,101507.39
2018-07-14T02:15:03.900Z,101509.05
2018-07-14T02:18:09.392Z,101515.41
2018-07-14T02:21:14.675Z,101515.03
2018-07-14T02:24:20.646Z,101515.11
2018-07-14T02:27:26.701Z,101516.30
2018-07-14T02:30:32.571Z,101522.75
2018-07-14T02:33:38.676Z,101522.90
2018-07-14T02:36:45.167Z,101518.34
2018-07-14T02:39:50.326Z,101520.55
2018-07-14T02:42:56.396Z,101518.27
2018-07-14T02:46:02.483Z,101518.05
2018-07-14T02:49:08.951Z,101519.19
2018-07-14T02:52:14.868Z,101509.31
2018-07-14T02:55:20.671Z,101504.23
2018-07-14T02:58:26.979Z,101505.91
2018-07-14T03:01:33.687Z,101498.23
2018-07-14T03:04:39.462Z,101508.11
2018-07-14T03:07:44.635Z,101507.65
2018-07-14T03:10:51.760Z,101510.77
2018-07-14T03:13:58.749Z,101504.99
2018-07-14T03:17:04.491Z,101510.69
2018-07-14T03:20:10.875Z,101511.06
2018-07-14T03:23:16.555Z,101514.63
2018-07-14T03:26:22.144Z,101513.27
2018-07-14T03:29:27.315Z,101512.09
2018-07-14T03:32:33.363Z,101518.05
2018-07-14T03:35:38.271Z,101513.34
2018-07-14T03:38:43.442Z,101508.11
2018-07-14T03:41:50.992Z,101504.99
2018-07-14T03:44:57.703Z,101507.50
2018-07-14T03:48:04.652Z,101508.63
2018-07-14T03:51:10.619Z,101511.55
2018-07-14T03:54:16.492Z,101513.22
2018-07-14T03:57:23.380Z,101510.55
2018-07-14T04:00:30.359Z,101510.94
2018-07-14T04:03:37.344Z,101507.09
2018-07-14T04:06:44.149Z,101506.93
2018-07-14T04:09:49.925Z,101511.36
2018-07-14T04:12:55.523Z,101509.38
2018-07-14T04:16:00.667Z,101506.09
2018-07-14T04:19:05.843Z,101510.14
2018-07-14T04:22:10.994Z,101503.77
2018-07-14T04:25:17.100Z,101508.11
2018-07-14T04:28:23.313Z,101499.74
2018-07-14T04:31:28.219Z,101500.88
2018-07-14T04:34:33.393Z,101513.05
2018-07-14T04:37:38.550Z,101507.80
2018-07-14T04:40:43.740Z,101502.62
2018-07-14T04:43:49.167Z,101499.34
2018-07-14T04:46:55.064Z,101504.80
2018-07-14T04:50:00.524Z,101500.34
2018-07-14T04:53:06.566Z,101502.51
2018-07-14T04:56:13.515Z,101504.96
2018-07-14T04:59:20.423Z,101503.45
2018-07-14T05:02:27.556Z,101500.61
2018-07-14T05:05:33.421Z,101508.61
2018-07-14T05:08:39.691Z,101505.02
2018-07-14T05:11:45.816Z,101516.41
2018-07-14T05:14:52.125Z,101511.18
2018-07-14T05:17:57.343Z,101513.59
2018-07-14T05:21:02.900Z,101511.77
2018-07-14T05:24:08.083Z,101510.30
2018-07-14T05:27:13.276Z,101522.63
2018-07-14T05:30:18.556Z,101523.30
2018-07-14T05:33:25.688Z,101524.42
2018-07-14T05:36:31.776Z,101524.66
2018-07-14T05:39:37.615Z,101523.56
2018-07-14T05:42:44.587Z,101526.52
2018-07-14T05:45:51.407Z,101527.13
2018-07-14T05:48:57.423Z,101530.38
2018-07-14T05:52:03.635Z,101531.05
2018-07-14T05:55:09.260Z,101532.16
2018-07-14T05:58:15.383Z,101534.90
2018-07-14T06:01:22.423Z,101540.36
2018-07-14T06:04:29.124Z,101539.30
2018-07-14T06:07:36.018Z,101546.42
2018-07-14T06:10:42.048Z,101548.37
2018-07-14T06:13:47.113Z,101543.44
2018-07-14T06:16:52.784Z,101542.34
2018-07-14T06:19:58.209Z,101545.13
2018-07-14T06:23:03.429Z,101542.76
2018-07-14T06:26:09.278Z,101553.22
2018-07-14T06:29:14.188Z,101549.11
2018-07-14T06:32:20.791Z,101554.39
2018-07-14T06:35:27.019Z,101557.14
2018-07-14T06:38:32.758Z,101556.41
2018-07-14T06:41:39.992Z,101560.44
2018-07-14T06:44:45.863Z,101564.88
2018-07-14T06:47:52.048Z,101562.42
2018-07-14T06:50:58.166Z,101559.00
2018-07-14T06:54:04.053Z,101560.89
2018-07-14T06:57:09.943Z,101562.19
2018-07-14T07:00:16.107Z,101559.72
2018-07-14T07:03:22.084Z,101560.28
2018-07-14T07:06:27.940Z,101559.84
2018-07-14T07:09:34.778Z,101561.78
2018-07-14T07:12:40.958Z,101557.92
2018-07-14T07:15:46.709Z,101562.73
2018-07-14T07:18:53.695Z,101574.05
2018-07-14T07:21:59.637Z,101570.72
2018-07-14T07:25:06.525Z,101573.89
2018-07-14T07:28:12.858Z,101577.13
2018-07-14T07:31:19.486Z,101578.70
2018-07-14T07:34:26.690Z,101581.50
2018-07-14T07:37:33.529Z,101585.76
2018-07-14T07:40:40.683Z,101586.53
2018-07-14T07:43:47.544Z,101590.22
2018-07-14T07:46:53.612Z,101596.92
2018-07-14T07:50:00.879Z,101590.80
2018-07-14T07:53:06.495Z,101593.20
2018-07-14T07:56:13.608Z,101599.13
2018-07-14T07:59:19.728Z,101598.05
2018-07-14T08:02:25.874Z,101594.15
2018-07-14T08:05:31.410Z,101597.02
2018-07-14T08:08:37.292Z,101596.92
2018-07-14T08:11:42.687Z,101594.12
2018-07-14T08:14:49.584Z,101596.56
2018-07-14T08:17:55.420Z,101594.23
2018-07-14T08:21:01.477Z,101595.91
2018-07-14T08:24:07.535Z,101596.54
2018-07-14T08:27:13.222Z,101598.47
2018-07-14T08:30:20.351Z,101595.62
2018-07-14T08:33:26.152Z,101604.41
2018-07-14T08:36:32.027Z,101604.14
2018-07-14T08:39:39.142Z,101605.14
2018-07-14T08:42:45.066Z,101605.34
2018-07-14T08:45:51.077Z,101609.31
2018-07-14T08:48:57.001Z,101599.02
2018-07-14T08:52:02.960Z,101595.76
2018-07-14T08:55:08.880Z,101594.89
2018-07-14T08:58:14.835Z,101586.83
2018-07-14T09:01:20.759Z,101596.81
2018-07-14T09:04:26.849Z,101592.64
2018-07-14T09:07:32.764Z,101596.17
2018-07-14T09:10:38.582Z,101597.76
2018-07-14T09:13:45.706Z,101600.52
2018-07-14T09:16:51.420Z,101603.84
2018-07-14T09:19:56.641Z,101612.37
2018-07-14T09:23:02.992Z,101618.77
2018-07-14T09:26:08.806Z,101620.92
2018-07-14T09:29:14.844Z,101619.99
2018-07-14T09:32:21.558Z,101619.06
2018-07-14T09:35:28.464Z,101613.56
2018-07-14T09:38:34.436Z,101614.80
2018-07-14T09:41:40.660Z,101615.73
2018-07-14T09:44:47.406Z,101614.59
2018-07-14T09:47:53.766Z,101611.62
2018-07-14T09:50:59.410Z,101612.72
2018-07-14T09:54:06.553Z,101605.29
2018-07-14T09:57:13.393Z,101607.68
2018-07-14T10:00:25.679Z,101612.23
2018-07-14T10:03:32.368Z,101608.23
2018-07-14T10:06:38.599Z,101615.72
2018-07-14T10:09:46.000Z,101613.41
2018-07-14T10:12:51.179Z,101600.10
2018-07-14T10:15:57.897Z,101604.62
2018-07-14T10:19:03.305Z,101603.88
2018-07-14T10:22:09.634Z,101603.92
2018-07-14T10:25:17.100Z,101604.11
2018-07-14T10:28:22.819Z,101606.39
2018-07-14T10:31:29.303Z,101607.38
2018-07-14T10:34:35.876Z,101607.08
2018-07-14T10:37:41.763Z,101607.88
2018-07-14T10:40:47.688Z,101606.84
2018-07-14T10:43:54.669Z,101602.72
2018-07-14T10:47:01.709Z,101601.09
2018-07-14T10:50:07.600Z,101596.21
2018-07-14T10:53:13.939Z,101592.09
2018-07-14T10:56:19.631Z,101588.80
2018-07-14T10:59:26.723Z,101583.41
2018-07-14T11:02:32.563Z,101587.92
2018-07-14T11:05:38.533Z,101587.13
2018-07-14T11:08:44.351Z,101587.88
2018-07-14T11:11:50.488Z,101588.97
2018-07-14T11:14:57.459Z,101586.14
2018-07-14T11:18:03.572Z,101584.73
2018-07-14T11:21:08.880Z,101581.47
2018-07-14T11:24:14.075Z,101581.61
2018-07-14T11:27:21.445Z,101574.88
2018-07-14T11:30:27.260Z,101574.58
2018-07-14T11:33:33.536Z,101572.94
2018-07-14T11:36:38.716Z,101571.77
2018-07-14T11:39:43.903Z,101568.75
2018-07-14T11:42:50.048Z,101567.58
2018-07-14T11:45:55.924Z,101564.67
2018-07-14T11:49:02.977Z,101572.14
2018-07-14T11:52:08.776Z,101576.77
2018-07-14T11:55:14.819Z,101568.28
2018-07-14T11:58:20.818Z,101566.39
2018-07-14T12:01:26.134Z,101566.28
2018-07-14T12:04:32.650Z,101567.00
2018-07-14T12:07:39.600Z,101563.45
2018-07-14T12:10:46.032Z,101562.14
2018-07-14T12:13:51.220Z,101558.59
2018-07-14T12:16:57.771Z,101554.22
2018-07-14T12:20:04.159Z,101560.25
2018-07-14T12:23:09.372Z,101555.98
2018-07-14T12:26:16.413Z,101551.37
2018-07-14T12:29:22.419Z,101549.95
2018-07-14T12:32:28.389Z,101544.54
2018-07-14T12:35:34.447Z,101540.16
2018-07-14T12:38:40.633Z,101543.13
2018-07-14T12:41:46.162Z,101534.72
2018-07-14T12:44:51.336Z,101535.94
2018-07-14T12:47:57.719Z,101534.16
2018-07-14T12:51:03.536Z,101535.47
2018-07-14T12:54:09.673Z,101536.18
2018-07-14T12:57:15.807Z,101531.33
2018-07-14T13:00:21.494Z,101532.98
2018-07-14T13:03:27.536Z,101525.91
2018-07-14T13:06:33.772Z,101523.78
2018-07-14T13:09:40.253Z,101522.36
2018-07-14T13:12:46.158Z,101529.35
2018-07-14T13:15:52.492Z,101521.42
2018-07-14T13:18:58.245Z,101518.81
2018-07-14T13:22:04.299Z,101516.92
2018-07-14T13:25:10.126Z,101506.38
2018-07-14T13:28:15.981Z,101507.92
2018-07-14T13:31:21.956Z,101505.20
2018-07-14T13:34:27.941Z,101510.09
2018-07-14T13:37:34.711Z,101498.83
2018-07-14T13:40:40.763Z,101499.93
2018-07-14T13:43:45.968Z,101501.70
2018-07-14T13:46:52.239Z,101501.35
2018-07-14T13:49:57.967Z,101502.57
2018-07-14T13:53:04.116Z,101496.41
2018-07-14T13:56:09.868Z,101497.23
2018-07-14T13:59:16.217Z,101490.95
2018-07-14T14:02:21.825Z,101496.64
2018-07-14T14:05:28.816Z,101484.67
2018-07-14T14:08:34.872Z,101483.72
2018-07-14T14:11:40.587Z,101480.41
2018-07-14T14:14:45.780Z,101480.41
2018-07-14T14:17:52.432Z,101475.55
2018-07-14T14:20:58.280Z,101476.61
2018-07-14T14:24:04.202Z,101469.62
2018-07-14T14:27:11.243Z,101459.55
2018-07-14T14:30:17.267Z,101455.39
2018-07-14T14:33:24.040Z,101449.14
2018-07-14T14:36:29.878Z,101448.42
2018-07-14T14:39:35.812Z,101447.70
2018-07-14T14:42:42.810Z,101445.80
2018-07-14T14:45:48.629Z,101445.80
2018-07-14T14:48:55.599Z,101439.06
2018-07-14T14:52:02.565Z,101435.16
2018-07-14T14:55:08.315Z,101433.25
2018-07-14T14:58:15.451Z,101437.27
2018-07-14T15:01:21.403Z,101439.67
2018-07-14T15:04:27.219Z,101437.41
2018-07-14T15:07:33.136Z,101435.98
2018-07-14T15:10:40.414Z,101438.13
2018-07-14T15:13:45.641Z,101429.82
2018-07-14T15:16:51.160Z,101432.20
2018-07-14T15:19:57.080Z,101430.89
2018-07-14T15:23:04.166Z,101428.16
2018-07-14T15:26:09.899Z,101428.16
2018-07-14T15:29:15.975Z,101426.98
2018-07-14T15:32:22.317Z,101424.84
2018-07-14T15:35:27.745Z,101427.55
2018-07-14T15:38:33.251Z,101423.76
2018-07-14T15:41:39.786Z,101421.27
2018-07-14T15:44:45.818Z,101428.14
2018-07-14T15:47:53.143Z,101424.36
2018-07-14T15:50:59.284Z,101424.95
2018-07-14T15:54:05.652Z,101426.61
2018-07-14T15:57:11.887Z,101421.99
2018-07-14T16:00:17.355Z,101422.34
2018-07-14T16:03:23.356Z,101418.55
2018-07-14T16:06:30.313Z,101426.37
2018-07-14T16:09:36.589Z,101423.42
2018-07-14T16:12:42.667Z,101421.41
2018-07-14T16:15:48.540Z,101426.23
2018-07-14T16:18:55.266Z,101416.76
2018-07-14T16:22:02.384Z,101415.58
2018-07-14T16:25:09.560Z,101417.36
2018-07-14T16:28:14.761Z,101420.20
2018-07-14T16:31:20.143Z,101417.25
2018-07-14T16:34:26.264Z,101421.98
2018-07-14T16:37:32.044Z,101420.45
2018-07-14T16:40:38.309Z,101420.66
2018-07-14T16:43:45.134Z,101419.01
2018-07-14T16:46:50.782Z,101422.33
2018-07-14T16:49:56.975Z,101422.80
2018-07-14T16:53:02.939Z,101422.22
2018-07-14T16:56:09.062Z,101415.09
2018-07-14T16:59:14.291Z,101411.41
2018-07-14T17:02:19.476Z,101414.62
2018-07-14T17:05:25.351Z,101413.91
2018-07-14T17:08:32.489Z,101409.85
2018-07-14T17:11:38.579Z,101408.31
2018-07-14T17:14:46.076Z,101415.42
2018-07-14T17:17:51.278Z,101415.66
2018-07-14T17:20:57.452Z,101410.66
2018-07-14T17:24:03.593Z,101407.47
2018-07-14T17:27:09.346Z,101410.31
2018-07-14T17:30:15.477Z,101411.34
2018-07-14T17:33:21.672Z,101411.23
2018-07-14T17:36:27.496Z,101408.35
2018-07-14T17:39:32.743Z,101406.34
2018-07-14T17:42:37.888Z,101403.47
2018-07-14T17:45:44.226Z,101400.16
2018-07-14T17:48:49.832Z,101398.97
2018-07-14T17:51:56.778Z,101401.69
2018-07-14T17:55:03.848Z,101397.66
2018-07-14T17:58:10.732Z,101398.34
2018-07-14T18:01:16.554Z,101400.70
2018-07-14T18:04:22.563Z,101397.51
2018-07-14T18:07:28.271Z,101397.36
2018-07-14T18:10:34.471Z,101394.52
2018-07-14T18:13:40.376Z,101391.66
2018-07-14T18:16:45.982Z,101392.61
2018-07-14T18:19:52.729Z,101392.84
2018-07-14T18:22:59.577Z,101395.53
2018-07-14T18:26:06.098Z,101396.59
2018-07-14T18:29:11.502Z,101397.66
2018-07-14T18:32:17.739Z,101395.28
2018-07-14T18:35:23.508Z,101398.92
2018-07-14T18:38:29.565Z,101394.30
2018-07-14T18:41:35.579Z,101391.45
2018-07-14T18:44:41.476Z,101395.48
2018-07-14T18:47:47.352Z,101401.39
2018-07-14T18:50:53.344Z,101400.75
2018-07-14T18:53:58.707Z,101402.28
2018-07-14T18:57:04.765Z,101405.95
2018-07-14T19:00:10.727Z,101409.61
2018-07-14T19:03:15.927Z,101412.41
2018-07-14T19:06:22.144Z,101410.97
2018-07-14T19:09:28.409Z,101412.03
2018-07-14T19:12:34.530Z,101411.28
2018-07-14T19:15:40.424Z,101414.94
2018-07-14T19:18:45.321Z,101415.16
2018-07-14T19:21:51.096Z,101413.62
2018-07-14T19:24:56.949Z,101409.87
2018-07-14T19:28:02.907Z,101418.27
2018-07-14T19:31:08.740Z,101418.02
2018-07-14T19:34:14.669Z,101418.23
2018-07-14T19:37:20.684Z,101417.99
2018-07-14T19:40:26.557Z,101419.02
2018-07-14T19:43:32.992Z,101412.73
2018-07-14T19:46:38.540Z,101416.86
2018-07-14T19:49:44.428Z,101414.37
2018-07-14T19:52:51.276Z,101409.83
2018-07-14T19:55:57.236Z,101407.09
2018-07-14T19:59:03.103Z,101411.57
2018-07-14T20:02:09.759Z,101410.84
2018-07-14T20:05:16.822Z,101407.00
2018-07-14T20:08:22.688Z,101412.41
2018-07-14T20:11:29.701Z,101414.84
2018-07-14T20:14:36.179Z,101418.24
2018-07-14T20:17:41.635Z,101417.23
2018-07-14T20:20:46.847Z,101415.79
2018-07-14T20:23:53.478Z,101420.56
2018-07-14T20:27:00.166Z,101421.82
2018-07-14T20:30:06.390Z,101420.37
2018-07-14T20:33:11.767Z,101419.94
2018-07-14T20:36:17.868Z,101432.31
2018-07-14T20:39:23.819Z,101427.11
2018-07-14T20:42:29.462Z,101429.74
2018-07-14T20:45:35.372Z,101425.80
2018-07-14T20:48:40.263Z,101432.67
2018-07-14T20:51:45.147Z,101431.44
2018-07-14T20:54:51.214Z,101426.47
2018-07-14T20:57:57.326Z,101431.47
2018-07-14T21:01:03.029Z,101432.92
2018-07-14T21:04:09.406Z,101433.40
2018-07-14T21:07:14.803Z,101429.16
2018-07-14T21:10:20.712Z,101435.12
2018-07-14T21:13:27.772Z,101442.91
2018-07-14T21:16:35.392Z,101437.36
2018-07-14T21:19:40.565Z,101433.97
2018-07-14T21:22:47.083Z,101439.31
2018-07-14T21:25:52.585Z,101442.01
2018-07-14T21:28:59.452Z,101435.25
2018-07-14T21:32:04.609Z,101433.67
2018-07-14T21:35:10.454Z,101435.73
2018-07-14T21:38:15.723Z,101431.09
2018-07-14T21:41:20.603Z,101438.11
2018-07-14T21:44:26.296Z,101433.59
2018-07-14T21:47:31.683Z,101439.30
2018-07-14T21:50:36.921Z,101448.81
2018-07-14T21:53:42.319Z,101446.05
2018-07-14T21:56:48.443Z,101445.46
2018-07-14T21:59:54.690Z,101438.95
2018-07-14T22:03:01.345Z,101445.86
2018-07-14T22:06:08.034Z,101449.98
2018-07-14T22:09:13.824Z,101446.01
2018-07-14T22:12:19.940Z,101447.45
2018-07-14T22:15:25.785Z,101441.59
2018-07-14T22:18:31.599Z,101439.36
2018-07-14T22:21:36.786Z,101441.73
2018-07-14T22:24:42.495Z,101444.45
2018-07-14T22:27:47.667Z,101447.59
2018-07-14T22:30:52.870Z,101442.22
2018-07-14T22:33:58.088Z,101435.79
2018-07-14T22:37:05.547Z,101440.54
2018-07-14T22:40:10.737Z,101441.81
2018-07-14T22:43:15.911Z,101446.38
2018-07-14T22:46:22.005Z,101439.52
2018-07-14T22:49:28.898Z,101439.75
2018-07-14T22:52:35.974Z,101436.20
2018-07-14T22:55:42.263Z,101434.86
2018-07-14T22:58:48.351Z,101435.48
2018-07-14T23:01:55.012Z,101429.50
2018-07-14T23:05:01.985Z,101432.66
2018-07-14T23:08:08.772Z,101435.86
2018-07-14T23:11:14.492Z,101429.41
2018-07-14T23:14:20.999Z,101432.71
2018-07-14T23:17:28.063Z,101433.25
2018-07-14T23:20:33.945Z,101436.89
2018-07-14T23:23:39.963Z,101430.77
2018-07-14T23:26:46.383Z,101424.60
2018-07-14T23:29:51.636Z,101423.94
2018-07-14T23:32:58.492Z,101431.52
2018-07-14T23:36:04.892Z,101420.69
2018-07-14T23:39:10.673Z,101420.98
2018-07-14T23:42:16.572Z,101418.34
2018-07-14T23:45:22.705Z,101414.55
2018-07-14T23:48:28.081Z,101415.67
2018-07-14T23:51:33.255Z,101418.88
2018-07-14T23:54:40.376Z,101417.33
2018-07-14T23:57:46.136Z,101410.59
